UAL1338 KRDU-KBOS
Flight info
| Callsign | UAL1338 |
|---|---|
| Flight time | N/A |
| Altitude | 39000 |
| Route | BEXGO5 BOUSY GEARS BBOBO Q22 RBV Q419 JFK ROBUC3 |
| Aircraft | B77L/H-SDE1E2E3FGHIJ2J3J4J5M1RWXY/LB1D1 |
Departure
| Time | 2026-05-07 00:07 |
|---|---|
| Airport | Raleigh-Durham International Airport (KRDU) |
Arrival
| Time | N/A |
|---|---|
| Airport | Boston Logan International Airport (KBOS) |
| Time | Latitude | Longitude | Altitude | Speed | Heading |
|---|---|---|---|---|---|
| 2026-05-06 23:20 | 35.87499 | -78.79674 | 382 ft | 0 kts | 82° |
| 2026-05-06 23:51 | 35.87494 | -78.79693 | 382 ft | 2 kts | 51° |
| 2026-05-06 23:51 | 35.87481 | -78.79707 | 382 ft | 2 kts | 24° |
| 2026-05-06 23:51 | 35.87466 | -78.79713 | 382 ft | 2 kts | 8° |
| 2026-05-06 23:51 | 35.87449 | -78.79714 | 382 ft | 2 kts | 355° |
| 2026-05-06 23:52 | 35.87433 | -78.79711 | 383 ft | 2 kts | 345° |
| 2026-05-06 23:52 | 35.87419 | -78.79706 | 384 ft | 1 kts | 329° |
| 2026-05-06 23:52 | 35.87416 | -78.79703 | 384 ft | 0 kts | 322° |
| 2026-05-06 23:54 | 35.87439 | -78.79719 | 383 ft | 12 kts | 336° |
| 2026-05-06 23:54 | 35.87515 | -78.79779 | 381 ft | 13 kts | 343° |
| 2026-05-06 23:55 | 35.87592 | -78.79723 | 382 ft | 13 kts | 43° |
| 2026-05-06 23:55 | 35.87674 | -78.79671 | 386 ft | 13 kts | 17° |
| 2026-05-06 23:55 | 35.87757 | -78.79619 | 389 ft | 14 kts | 41° |
| 2026-05-06 23:55 | 35.87828 | -78.79534 | 391 ft | 15 kts | 44° |
| 2026-05-06 23:56 | 35.87900 | -78.79445 | 390 ft | 15 kts | 45° |
| 2026-05-06 23:56 | 35.87978 | -78.79348 | 391 ft | 17 kts | 44° |
| 2026-05-06 23:56 | 35.88063 | -78.79245 | 395 ft | 17 kts | 44° |
| 2026-05-06 23:56 | 35.88149 | -78.79142 | 395 ft | 17 kts | 44° |
| 2026-05-06 23:57 | 35.88172 | -78.79032 | 391 ft | 13 kts | 99° |
| 2026-05-06 23:57 | 35.88224 | -78.78937 | 394 ft | 14 kts | 46° |
| 2026-05-06 23:57 | 35.88292 | -78.78850 | 396 ft | 14 kts | 45° |
| 2026-05-06 23:57 | 35.88362 | -78.78765 | 398 ft | 14 kts | 44° |
| 2026-05-06 23:58 | 35.88433 | -78.78679 | 402 ft | 14 kts | 44° |
| 2026-05-06 23:58 | 35.88503 | -78.78593 | 406 ft | 14 kts | 45° |
| 2026-05-06 23:58 | 35.88576 | -78.78501 | 408 ft | 17 kts | 45° |
| 2026-05-06 23:58 | 35.88666 | -78.78392 | 407 ft | 19 kts | 44° |
| 2026-05-06 23:59 | 35.88762 | -78.78272 | 406 ft | 20 kts | 45° |
| 2026-05-06 23:59 | 35.88861 | -78.78151 | 407 ft | 20 kts | 45° |
| 2026-05-06 23:59 | 35.88957 | -78.78028 | 406 ft | 20 kts | 52° |
| 2026-05-06 23:59 | 35.89022 | -78.77873 | 409 ft | 20 kts | 50° |
| 2026-05-07 00:00 | 35.89111 | -78.77761 | 408 ft | 14 kts | 45° |
| 2026-05-07 00:00 | 35.89160 | -78.77700 | 409 ft | 10 kts | 45° |
| 2026-05-07 00:00 | 35.89167 | -78.77692 | 410 ft | 0 kts | 45° |
| 2026-05-07 00:02 | 35.89178 | -78.77678 | 408 ft | 5 kts | 45° |
| 2026-05-07 00:02 | 35.89214 | -78.77654 | 410 ft | 6 kts | 8° |
| 2026-05-07 00:02 | 35.89253 | -78.77673 | 418 ft | 6 kts | 325° |
| 2026-05-07 00:03 | 35.89264 | -78.77685 | 414 ft | 0 kts | 318° |
| 2026-05-07 00:04 | 35.89292 | -78.77717 | 415 ft | 2 kts | 316° |
| 2026-05-07 00:04 | 35.89294 | -78.77718 | 415 ft | 0 kts | 316° |
| 2026-05-07 00:04 | 35.89294 | -78.77719 | 423 ft | 1 kts | 316° |
| 2026-05-07 00:05 | 35.89341 | -78.77776 | 412 ft | 9 kts | 313° |
| 2026-05-07 00:05 | 35.89358 | -78.77804 | 412 ft | 8 kts | 299° |
| 2026-05-07 00:05 | 35.89359 | -78.77835 | 415 ft | 0 kts | 253° |
| 2026-05-07 00:05 | 35.89341 | -78.77864 | 413 ft | 0 kts | 221° |
| 2026-05-07 00:06 | 35.89309 | -78.77902 | 409 ft | 26 kts | 224° |
| 2026-05-07 00:06 | 35.88945 | -78.78348 | 408 ft | 124 kts | 225° |
| 2026-05-07 00:06 | 35.88172 | -78.79304 | 635 ft | 182 kts | 226° |
| 2026-05-07 00:07 | 35.87326 | -78.80339 | 1873 ft | 164 kts | 225° |
| 2026-05-07 00:07 | 35.86478 | -78.81303 | 2968 ft | 168 kts | 225° |
| 2026-05-07 00:07 | 35.85546 | -78.82341 | 3361 ft | 198 kts | 224° |
| 2026-05-07 00:07 | 35.84444 | -78.83591 | 3740 ft | 226 kts | 228° |
| 2026-05-07 00:08 | 35.83662 | -78.85287 | 4494 ft | 233 kts | 258° |
| 2026-05-07 00:08 | 35.83738 | -78.87310 | 5351 ft | 245 kts | 285° |
| 2026-05-07 00:08 | 35.84807 | -78.89419 | 5959 ft | 255 kts | 307° |
| 2026-05-07 00:08 | 35.85359 | -78.90155 | 6003 ft | 258 kts | 308° |
| 2026-05-07 00:09 | 35.87000 | -78.92182 | 5992 ft | 261 kts | 310° |
| 2026-05-07 00:09 | 35.88316 | -78.93762 | 5993 ft | 257 kts | 310° |
| 2026-05-07 00:09 | 35.89607 | -78.95299 | 6008 ft | 257 kts | 310° |
| 2026-05-07 00:09 | 35.90848 | -78.96774 | 6427 ft | 259 kts | 311° |
| 2026-05-07 00:10 | 35.92140 | -78.98314 | 7393 ft | 261 kts | 310° |
| 2026-05-07 00:10 | 35.93412 | -78.99817 | 8391 ft | 262 kts | 312° |
| 2026-05-07 00:10 | 35.95095 | -79.00951 | 9136 ft | 288 kts | 342° |
| 2026-05-07 00:10 | 35.96742 | -79.00978 | 9901 ft | 304 kts | 3° |
| 2026-05-07 00:11 | 35.99110 | -78.99924 | 10748 ft | 331 kts | 25° |
| 2026-05-07 00:11 | 36.00895 | -78.98250 | 11049 ft | 366 kts | 43° |
| 2026-05-07 00:11 | 36.02528 | -78.95602 | 11429 ft | 397 kts | 55° |
| 2026-05-07 00:11 | 36.03908 | -78.92663 | 11997 ft | 405 kts | 59° |
| 2026-05-07 00:12 | 36.05380 | -78.89257 | 11996 ft | 408 kts | 60° |
| 2026-05-07 00:12 | 36.06577 | -78.86463 | 11995 ft | 408 kts | 59° |
| 2026-05-07 00:12 | 36.07925 | -78.83387 | 11991 ft | 407 kts | 59° |
| 2026-05-07 00:12 | 36.08834 | -78.81356 | 11987 ft | 407 kts | 58° |
| 2026-05-07 00:13 | 36.10631 | -78.77423 | 12100 ft | 410 kts | 58° |
| 2026-05-07 00:13 | 36.12028 | -78.74410 | 12999 ft | 415 kts | 57° |
| 2026-05-07 00:13 | 36.13313 | -78.71649 | 14086 ft | 416 kts | 57° |
| 2026-05-07 00:13 | 36.14749 | -78.68567 | 15085 ft | 422 kts | 57° |
| 2026-05-07 00:14 | 36.16001 | -78.65881 | 15884 ft | 429 kts | 56° |
| 2026-05-07 00:14 | 36.17709 | -78.62215 | 16884 ft | 438 kts | 56° |
| 2026-05-07 00:14 | 36.19275 | -78.58846 | 17804 ft | 446 kts | 56° |
| 2026-05-07 00:14 | 36.20795 | -78.55570 | 18622 ft | 454 kts | 56° |
| 2026-05-07 00:15 | 36.22339 | -78.52233 | 19401 ft | 460 kts | 56° |
| 2026-05-07 00:15 | 36.23860 | -78.48944 | 20193 ft | 465 kts | 56° |
| 2026-05-07 00:15 | 36.25531 | -78.45331 | 21058 ft | 470 kts | 56° |
| 2026-05-07 00:15 | 36.27146 | -78.42002 | 21790 ft | 472 kts | 50° |
| 2026-05-07 00:16 | 36.29340 | -78.39101 | 22448 ft | 464 kts | 32° |
| 2026-05-07 00:16 | 36.31997 | -78.36705 | 23090 ft | 469 kts | 29° |
| 2026-05-07 00:16 | 36.34640 | -78.34396 | 23739 ft | 475 kts | 30° |
| 2026-05-07 00:16 | 36.37346 | -78.31989 | 24416 ft | 480 kts | 31° |
| 2026-05-07 00:17 | 36.40144 | -78.29437 | 25105 ft | 485 kts | 31° |
| 2026-05-07 00:17 | 36.42667 | -78.27093 | 25698 ft | 490 kts | 32° |
| 2026-05-07 00:17 | 36.45397 | -78.24534 | 26324 ft | 495 kts | 32° |
| 2026-05-07 00:17 | 36.48097 | -78.22004 | 26935 ft | 501 kts | 32° |
| 2026-05-07 00:18 | 36.50977 | -78.19307 | 27567 ft | 506 kts | 32° |
| 2026-05-07 00:18 | 36.53752 | -78.16701 | 28175 ft | 511 kts | 32° |
| 2026-05-07 00:18 | 36.56576 | -78.14041 | 28770 ft | 516 kts | 32° |
| 2026-05-07 00:18 | 36.59290 | -78.11478 | 29308 ft | 521 kts | 32° |
| 2026-05-07 00:19 | 36.62194 | -78.08734 | 29854 ft | 527 kts | 32° |
| 2026-05-07 00:19 | 36.65141 | -78.05946 | 30340 ft | 532 kts | 32° |
| 2026-05-07 00:19 | 36.68096 | -78.03148 | 30766 ft | 536 kts | 31° |
| 2026-05-07 00:19 | 36.70974 | -78.00420 | 31165 ft | 540 kts | 31° |
| 2026-05-07 00:20 | 36.74058 | -77.97493 | 31665 ft | 541 kts | 30° |
| 2026-05-07 00:20 | 36.77051 | -77.94648 | 32209 ft | 541 kts | 29° |
| 2026-05-07 00:20 | 36.80033 | -77.91812 | 32753 ft | 540 kts | 29° |
| 2026-05-07 00:20 | 36.82878 | -77.88669 | 33315 ft | 554 kts | 40° |
| 2026-05-07 00:21 | 36.85250 | -77.84793 | 33826 ft | 564 kts | 47° |
| 2026-05-07 00:21 | 36.86329 | -77.82808 | 34055 ft | 566 kts | 49° |
| 2026-05-07 00:21 | 36.88738 | -77.78181 | 34543 ft | 567 kts | 49° |
| 2026-05-07 00:21 | 36.91560 | -77.72757 | 35200 ft | 564 kts | 48° |
| 2026-05-07 00:22 | 36.92999 | -77.70063 | 35556 ft | 562 kts | 47° |
| 2026-05-07 00:22 | 36.95941 | -77.64694 | 36282 ft | 557 kts | 46° |
| 2026-05-07 00:22 | 36.97516 | -77.61868 | 36642 ft | 555 kts | 45° |
| 2026-05-07 00:22 | 37.00335 | -77.56833 | 37271 ft | 554 kts | 45° |
| 2026-05-07 00:23 | 37.02505 | -77.52941 | 37754 ft | 552 kts | 45° |
| 2026-05-07 00:23 | 37.04665 | -77.49044 | 38239 ft | 551 kts | 45° |
| 2026-05-07 00:23 | 37.06866 | -77.45133 | 38680 ft | 545 kts | 40° |
| 2026-05-07 00:23 | 37.08725 | -77.42489 | 38869 ft | 532 kts | 32° |
| 2026-05-07 00:24 | 37.12209 | -77.38959 | 38933 ft | 514 kts | 20° |
| 2026-05-07 00:24 | 37.15284 | -77.36744 | 38941 ft | 500 kts | 11° |
| 2026-05-07 00:24 | 37.18415 | -77.35226 | 38954 ft | 482 kts | 4° |
| 2026-05-07 00:24 | 37.21449 | -77.33965 | 38947 ft | 480 kts | 4° |
| 2026-05-07 00:25 | 37.27793 | -77.31337 | 38930 ft | 479 kts | 4° |
| 2026-05-07 00:25 | 37.34117 | -77.28637 | 38919 ft | 479 kts | 4° |
| 2026-05-07 00:26 | 37.40353 | -77.25926 | 38924 ft | 479 kts | 5° |
| 2026-05-07 00:26 | 37.46679 | -77.23164 | 38910 ft | 480 kts | 5° |
| 2026-05-07 00:27 | 37.53052 | -77.20378 | 38918 ft | 482 kts | 5° |
| 2026-05-07 00:27 | 37.59368 | -77.17614 | 38915 ft | 483 kts | 5° |
| 2026-05-07 00:28 | 37.65716 | -77.14831 | 38919 ft | 485 kts | 5° |
| 2026-05-07 00:28 | 37.72042 | -77.11523 | 38922 ft | 504 kts | 14° |
| 2026-05-07 00:29 | 37.78218 | -77.07241 | 38921 ft | 509 kts | 15° |
| 2026-05-07 00:30 | 37.90543 | -76.98539 | 38920 ft | 507 kts | 15° |
| 2026-05-07 00:30 | 37.96046 | -76.94717 | 38922 ft | 506 kts | 15° |
| 2026-05-07 00:31 | 38.00266 | -76.91786 | 38910 ft | 506 kts | 15° |
| 2026-05-07 00:31 | 38.08036 | -76.86373 | 38910 ft | 505 kts | 15° |
| 2026-05-07 00:32 | 38.14196 | -76.82068 | 38897 ft | 504 kts | 15° |
| 2026-05-07 00:32 | 38.20320 | -76.77781 | 38888 ft | 504 kts | 15° |
| 2026-05-07 00:33 | 38.26345 | -76.73030 | 38881 ft | 521 kts | 24° |
| 2026-05-07 00:33 | 38.31948 | -76.67009 | 38883 ft | 529 kts | 28° |
| 2026-05-07 00:34 | 38.37461 | -76.60876 | 38886 ft | 527 kts | 28° |
| 2026-05-07 00:34 | 38.43028 | -76.54845 | 38882 ft | 526 kts | 27° |
| 2026-05-07 00:35 | 38.48590 | -76.48880 | 38874 ft | 525 kts | 27° |
| 2026-05-07 00:35 | 38.54393 | -76.42658 | 38882 ft | 524 kts | 27° |
| 2026-05-07 00:36 | 38.59479 | -76.37185 | 38893 ft | 524 kts | 27° |
| 2026-05-07 00:36 | 38.64351 | -76.31928 | 38890 ft | 524 kts | 27° |
| 2026-05-07 00:37 | 38.70355 | -76.25064 | 38883 ft | 531 kts | 31° |
| 2026-05-07 00:37 | 38.75332 | -76.18838 | 38884 ft | 533 kts | 32° |
| 2026-05-07 00:38 | 38.80494 | -76.12316 | 38887 ft | 533 kts | 32° |
| 2026-05-07 00:38 | 38.85671 | -76.05849 | 38890 ft | 532 kts | 31° |
| 2026-05-07 00:39 | 38.89262 | -76.01391 | 38887 ft | 532 kts | 31° |
| 2026-05-07 00:39 | 38.95273 | -75.93933 | 38890 ft | 532 kts | 31° |
| 2026-05-07 00:40 | 38.99850 | -75.88238 | 38885 ft | 532 kts | 31° |
| 2026-05-07 00:40 | 39.05153 | -75.81620 | 38875 ft | 532 kts | 31° |
| 2026-05-07 00:41 | 39.10255 | -75.75237 | 38871 ft | 533 kts | 31° |
| 2026-05-07 00:41 | 39.14518 | -75.69893 | 38868 ft | 533 kts | 31° |
| 2026-05-07 00:42 | 39.20378 | -75.62532 | 38856 ft | 533 kts | 31° |
| 2026-05-07 00:42 | 39.25417 | -75.56189 | 38859 ft | 534 kts | 31° |
| 2026-05-07 00:43 | 39.30643 | -75.49595 | 38863 ft | 534 kts | 31° |
| 2026-05-07 00:43 | 39.35924 | -75.42913 | 38761 ft | 534 kts | 31° |
| 2026-05-07 00:44 | 39.41175 | -75.36269 | 38763 ft | 538 kts | 31° |
| 2026-05-07 00:44 | 39.45415 | -75.30893 | 38745 ft | 541 kts | 31° |
| 2026-05-07 00:45 | 39.50355 | -75.24589 | 38515 ft | 532 kts | 31° |
| 2026-05-07 00:45 | 39.52946 | -75.21276 | 38020 ft | 531 kts | 31° |
| 2026-05-07 00:45 | 39.55491 | -75.18034 | 37364 ft | 535 kts | 32° |
| 2026-05-07 00:46 | 39.58136 | -75.14666 | 37031 ft | 535 kts | 32° |
| 2026-05-07 00:46 | 39.60722 | -75.11361 | 36869 ft | 533 kts | 32° |
| 2026-05-07 00:46 | 39.65497 | -75.05233 | 36857 ft | 525 kts | 32° |
| 2026-05-07 00:47 | 39.70324 | -74.99032 | 36864 ft | 524 kts | 32° |
| 2026-05-07 00:47 | 39.74719 | -74.93419 | 36885 ft | 540 kts | 32° |
| 2026-05-07 00:48 | 39.81015 | -74.85326 | 36871 ft | 547 kts | 33° |
| 2026-05-07 00:48 | 39.86391 | -74.78350 | 36868 ft | 547 kts | 33° |
| 2026-05-07 00:49 | 39.91746 | -74.71398 | 36852 ft | 545 kts | 33° |
| 2026-05-07 00:49 | 39.97050 | -74.64508 | 36847 ft | 543 kts | 32° |
| 2026-05-07 00:50 | 40.02361 | -74.57600 | 36844 ft | 542 kts | 33° |
| 2026-05-07 00:50 | 40.07512 | -74.50878 | 36871 ft | 542 kts | 33° |
| 2026-05-07 00:51 | 40.12636 | -74.44180 | 36853 ft | 542 kts | 33° |
| 2026-05-07 00:51 | 40.17725 | -74.37514 | 36870 ft | 543 kts | 33° |
| 2026-05-07 00:52 | 40.23081 | -74.30483 | 36877 ft | 543 kts | 33° |
| 2026-05-07 00:52 | 40.28007 | -74.23972 | 36848 ft | 522 kts | 33° |
| 2026-05-07 00:53 | 40.32851 | -74.17562 | 36864 ft | 512 kts | 32° |
| 2026-05-07 00:53 | 40.37180 | -74.11865 | 36868 ft | 509 kts | 32° |
| 2026-05-07 00:54 | 40.41693 | -74.05906 | 36844 ft | 507 kts | 32° |
| 2026-05-07 00:54 | 40.43552 | -74.03434 | 36688 ft | 506 kts | 34° |
| 2026-05-07 00:54 | 40.45848 | -73.99846 | 36236 ft | 518 kts | 44° |
| 2026-05-07 00:55 | 40.47663 | -73.96072 | 35612 ft | 537 kts | 54° |
| 2026-05-07 00:55 | 40.49002 | -73.92301 | 35323 ft | 556 kts | 63° |
| 2026-05-07 00:55 | 40.50710 | -73.83816 | 35320 ft | 571 kts | 79° |
| 2026-05-07 00:56 | 40.50703 | -73.72197 | 35265 ft | 570 kts | 101° |
| 2026-05-07 00:56 | 40.49875 | -73.67114 | 35062 ft | 559 kts | 110° |
| 2026-05-07 00:56 | 40.48574 | -73.62339 | 34727 ft | 549 kts | 120° |
| 2026-05-07 00:57 | 40.46827 | -73.57920 | 34285 ft | 540 kts | 129° |
| 2026-05-07 00:57 | 40.44693 | -73.53969 | 33799 ft | 532 kts | 139° |
| 2026-05-07 00:57 | 40.42171 | -73.50491 | 33409 ft | 518 kts | 149° |
| 2026-05-07 00:57 | 40.39380 | -73.47619 | 33107 ft | 500 kts | 159° |
| 2026-05-07 00:58 | 40.36424 | -73.45309 | 32758 ft | 488 kts | 164° |
| 2026-05-07 00:58 | 40.33412 | -73.43257 | 32363 ft | 485 kts | 166° |
| 2026-05-07 00:58 | 40.30420 | -73.41327 | 31946 ft | 484 kts | 167° |
| 2026-05-07 00:58 | 40.27384 | -73.39479 | 31526 ft | 476 kts | 171° |
| 2026-05-07 00:59 | 40.21182 | -73.37592 | 30643 ft | 442 kts | 189° |
| 2026-05-07 00:59 | 40.18157 | -73.37675 | 30178 ft | 426 kts | 199° |
| 2026-05-07 00:59 | 40.15305 | -73.38411 | 29611 ft | 411 kts | 208° |
| 2026-05-07 01:00 | 40.12704 | -73.39782 | 29357 ft | 391 kts | 218° |
| 2026-05-07 01:00 | 40.10490 | -73.41666 | 29334 ft | 380 kts | 228° |
| 2026-05-07 01:00 | 40.08632 | -73.44024 | 29270 ft | 362 kts | 237° |
| 2026-05-07 01:00 | 40.07215 | -73.46663 | 28603 ft | 349 kts | 246° |
| 2026-05-07 01:01 | 40.06305 | -73.49538 | 27428 ft | 350 kts | 261° |
| 2026-05-07 01:01 | 40.06083 | -73.52701 | 27189 ft | 350 kts | 270° |
| 2026-05-07 01:01 | 40.06274 | -73.55946 | 27032 ft | 362 kts | 277° |
| 2026-05-07 01:01 | 40.06946 | -73.59142 | 26911 ft | 371 kts | 287° |
| 2026-05-07 01:02 | 40.08101 | -73.62206 | 26892 ft | 380 kts | 295° |
| 2026-05-07 01:02 | 40.09725 | -73.64987 | 26883 ft | 388 kts | 305° |
| 2026-05-07 01:02 | 40.11799 | -73.67247 | 26876 ft | 402 kts | 317° |
| 2026-05-07 01:02 | 40.14386 | -73.68841 | 26879 ft | 423 kts | 331° |
| 2026-05-07 01:03 | 40.17387 | -73.69497 | 26879 ft | 449 kts | 347° |
| 2026-05-07 01:03 | 40.20525 | -73.69136 | 26881 ft | 480 kts | 0° |
| 2026-05-07 01:03 | 40.23743 | -73.67728 | 26887 ft | 509 kts | 14° |
| 2026-05-07 01:03 | 40.26788 | -73.65649 | 26876 ft | 517 kts | 19° |
| 2026-05-07 01:04 | 40.29842 | -73.63272 | 26885 ft | 518 kts | 22° |
| 2026-05-07 01:04 | 40.32921 | -73.60750 | 26885 ft | 518 kts | 22° |
| 2026-05-07 01:04 | 40.35702 | -73.58462 | 26898 ft | 517 kts | 21° |
| 2026-05-07 01:04 | 40.38869 | -73.56210 | 26879 ft | 505 kts | 13° |
| 2026-05-07 01:05 | 40.42141 | -73.54659 | 26865 ft | 491 kts | 4° |
| 2026-05-07 01:05 | 40.45411 | -73.53814 | 26875 ft | 476 kts | 355° |
| 2026-05-07 01:05 | 40.48760 | -73.53522 | 26884 ft | 467 kts | 349° |
| 2026-05-07 01:05 | 40.51958 | -73.53460 | 26883 ft | 465 kts | 348° |
| 2026-05-07 01:06 | 40.52414 | -73.53459 | 26880 ft | 465 kts | 348° |
| 2026-05-07 01:06 | 40.54577 | -73.53466 | 26873 ft | 465 kts | 347° |
| 2026-05-07 01:06 | 40.57642 | -73.53273 | 26852 ft | 478 kts | 356° |
| 2026-05-07 01:06 | 40.60938 | -73.52170 | 26861 ft | 499 kts | 8° |
| 2026-05-07 01:07 | 40.64333 | -73.50210 | 26863 ft | 512 kts | 17° |
| 2026-05-07 01:07 | 40.67239 | -73.47928 | 26853 ft | 525 kts | 26° |
| 2026-05-07 01:07 | 40.70242 | -73.44887 | 26876 ft | 530 kts | 29° |
| 2026-05-07 01:07 | 40.72986 | -73.41990 | 26864 ft | 531 kts | 30° |
| 2026-05-07 01:08 | 40.75944 | -73.38839 | 26864 ft | 532 kts | 30° |
| 2026-05-07 01:08 | 40.78297 | -73.36343 | 26865 ft | 531 kts | 30° |
| 2026-05-07 01:08 | 40.81465 | -73.33012 | 26868 ft | 531 kts | 29° |
| 2026-05-07 01:08 | 40.84361 | -73.29994 | 26866 ft | 531 kts | 29° |
| 2026-05-07 01:09 | 40.86654 | -73.27613 | 26865 ft | 531 kts | 29° |
| 2026-05-07 01:09 | 40.89552 | -73.24611 | 26862 ft | 531 kts | 29° |
| 2026-05-07 01:09 | 40.92534 | -73.21521 | 26860 ft | 531 kts | 29° |
| 2026-05-07 01:09 | 40.95286 | -73.18664 | 26862 ft | 531 kts | 29° |
| 2026-05-07 01:10 | 40.98138 | -73.15697 | 26858 ft | 531 kts | 29° |
| 2026-05-07 01:10 | 41.01005 | -73.12709 | 26852 ft | 531 kts | 29° |
| 2026-05-07 01:10 | 41.03941 | -73.09644 | 26796 ft | 530 kts | 29° |
| 2026-05-07 01:10 | 41.06871 | -73.06573 | 26740 ft | 518 kts | 29° |
| 2026-05-07 01:11 | 41.09515 | -73.03793 | 26642 ft | 503 kts | 29° |
| 2026-05-07 01:11 | 41.12198 | -73.00976 | 26449 ft | 490 kts | 28° |
| 2026-05-07 01:11 | 41.14593 | -72.98472 | 26186 ft | 484 kts | 28° |
| 2026-05-07 01:11 | 41.17370 | -72.95577 | 26109 ft | 488 kts | 28° |